sensor_id;sensor_type;location;lat;lon;timestamp;pressure;altitude;pressure_sealevel;temperature
20058;BMP180;10189;49.546;7.906;2024-03-08T00:00:17;98077.00;;;7.00
20058;BMP180;10189;49.546;7.906;2024-03-08T00:02:46;98080.00;;;7.00
20058;BMP180;10189;49.546;7.906;2024-03-08T00:05:14;98082.00;;;6.90
20058;BMP180;10189;49.546;7.906;2024-03-08T00:07:41;98086.00;;;7.00
20058;BMP180;10189;49.546;7.906;2024-03-08T00:10:10;98091.00;;;7.10
20058;BMP180;10189;49.546;7.906;2024-03-08T00:12:44;98086.00;;;7.00
20058;BMP180;10189;49.546;7.906;2024-03-08T00:15:12;98078.00;;;6.80
20058;BMP180;10189;49.546;7.906;2024-03-08T00:17:42;98085.00;;;6.70
20058;BMP180;10189;49.546;7.906;2024-03-08T00:20:08;98075.00;;;6.60
20058;BMP180;10189;49.546;7.906;2024-03-08T00:22:38;98087.00;;;6.50
20058;BMP180;10189;49.546;7.906;2024-03-08T00:25:06;98082.00;;;6.80
20058;BMP180;10189;49.546;7.906;2024-03-08T00:27:35;98078.00;;;6.80
20058;BMP180;10189;49.546;7.906;2024-03-08T00:30:02;98073.00;;;6.70
20058;BMP180;10189;49.546;7.906;2024-03-08T00:32:28;98066.00;;;6.60
20058;BMP180;10189;49.546;7.906;2024-03-08T00:34:54;98062.00;;;6.50
20058;BMP180;10189;49.546;7.906;2024-03-08T00:37:21;98066.00;;;6.60
20058;BMP180;10189;49.546;7.906;2024-03-08T00:39:53;98066.00;;;6.40
20058;BMP180;10189;49.546;7.906;2024-03-08T00:42:20;98062.00;;;6.30
20058;BMP180;10189;49.546;7.906;2024-03-08T00:44:48;98062.00;;;6.40
20058;BMP180;10189;49.546;7.906;2024-03-08T00:47:16;98066.00;;;6.50
20058;BMP180;10189;49.546;7.906;2024-03-08T00:49:42;98059.00;;;6.40
20058;BMP180;10189;49.546;7.906;2024-03-08T00:52:09;98066.00;;;6.30
20058;BMP180;10189;49.546;7.906;2024-03-08T00:54:35;98053.00;;;6.30
20058;BMP180;10189;49.546;7.906;2024-03-08T00:57:04;98057.00;;;6.30
20058;BMP180;10189;49.546;7.906;2024-03-08T00:59:30;98049.00;;;6.20
20058;BMP180;10189;49.546;7.906;2024-03-08T01:01:59;98053.00;;;6.20
20058;BMP180;10189;49.546;7.906;2024-03-08T01:04:26;98052.00;;;6.20
20058;BMP180;10189;49.546;7.906;2024-03-08T01:06:58;98056.00;;;6.20
20058;BMP180;10189;49.546;7.906;2024-03-08T01:09:25;98042.00;;;6.20
20058;BMP180;10189;49.546;7.906;2024-03-08T01:11:53;98044.00;;;6.20
20058;BMP180;10189;49.546;7.906;2024-03-08T01:14:20;98049.00;;;6.10
20058;BMP180;10189;49.546;7.906;2024-03-08T01:16:50;98045.00;;;6.00
20058;BMP180;10189;49.546;7.906;2024-03-08T01:19:16;98040.00;;;6.00
20058;BMP180;10189;49.546;7.906;2024-03-08T01:21:42;98039.00;;;6.00
20058;BMP180;10189;49.546;7.906;2024-03-08T01:24:08;98044.00;;;6.00
20058;BMP180;10189;49.546;7.906;2024-03-08T01:26:34;98037.00;;;5.90
20058;BMP180;10189;49.546;7.906;2024-03-08T01:29:03;98035.00;;;5.90
20058;BMP180;10189;49.546;7.906;2024-03-08T01:31:30;98032.00;;;5.80
20058;BMP180;10189;49.546;7.906;2024-03-08T01:33:57;98033.00;;;5.80
20058;BMP180;10189;49.546;7.906;2024-03-08T01:36:23;98030.00;;;5.70
20058;BMP180;10189;49.546;7.906;2024-03-08T01:38:51;98026.00;;;5.50
20058;BMP180;10189;49.546;7.906;2024-03-08T01:41:17;98032.00;;;5.50
20058;BMP180;10189;49.546;7.906;2024-03-08T01:43:44;98033.00;;;5.40
20058;BMP180;10189;49.546;7.906;2024-03-08T01:46:15;98026.00;;;5.40
20058;BMP180;10189;49.546;7.906;2024-03-08T01:48:43;98023.00;;;5.50
20058;BMP180;10189;49.546;7.906;2024-03-08T01:51:10;98023.00;;;5.50
20058;BMP180;10189;49.546;7.906;2024-03-08T01:53:38;98022.00;;;5.50
20058;BMP180;10189;49.546;7.906;2024-03-08T01:56:05;98008.00;;;5.50
20058;BMP180;10189;49.546;7.906;2024-03-08T01:58:32;98014.00;;;5.40
20058;BMP180;10189;49.546;7.906;2024-03-08T02:01:00;98004.00;;;5.40
20058;BMP180;10189;49.546;7.906;2024-03-08T02:03:26;98007.00;;;5.30
20058;BMP180;10189;49.546;7.906;2024-03-08T02:05:52;97997.00;;;5.20
20058;BMP180;10189;49.546;7.906;2024-03-08T02:08:20;98001.00;;;5.20
20058;BMP180;10189;49.546;7.906;2024-03-08T02:10:48;97994.00;;;5.20
20058;BMP180;10189;49.546;7.906;2024-03-08T02:13:15;98002.00;;;5.10
20058;BMP180;10189;49.546;7.906;2024-03-08T02:15:59;98007.00;;;5.10
20058;BMP180;10189;49.546;7.906;2024-03-08T02:18:26;98006.00;;;5.20
20058;BMP180;10189;49.546;7.906;2024-03-08T02:20:53;97990.00;;;5.10
20058;BMP180;10189;49.546;7.906;2024-03-08T02:23:20;97995.00;;;5.10
20058;BMP180;10189;49.546;7.906;2024-03-08T02:25:47;97982.00;;;5.00
20058;BMP180;10189;49.546;7.906;2024-03-08T02:28:14;97989.00;;;5.00
20058;BMP180;10189;49.546;7.906;2024-03-08T02:30:40;97979.00;;;5.00
20058;BMP180;10189;49.546;7.906;2024-03-08T02:33:07;97985.00;;;4.90
20058;BMP180;10189;49.546;7.906;2024-03-08T02:35:36;97982.00;;;4.90
20058;BMP180;10189;49.546;7.906;2024-03-08T02:38:03;97971.00;;;4.70
20058;BMP180;10189;49.546;7.906;2024-03-08T02:40:29;97980.00;;;4.50
20058;BMP180;10189;49.546;7.906;2024-03-08T02:42:55;97974.00;;;4.30
20058;BMP180;10189;49.546;7.906;2024-03-08T02:45:21;97987.00;;;4.20
20058;BMP180;10189;49.546;7.906;2024-03-08T02:47:47;97981.00;;;4.20
20058;BMP180;10189;49.546;7.906;2024-03-08T02:50:16;97977.00;;;4.20
20058;BMP180;10189;49.546;7.906;2024-03-08T02:52:42;97976.00;;;4.50
20058;BMP180;10189;49.546;7.906;2024-03-08T02:55:09;97980.00;;;4.40
20058;BMP180;10189;49.546;7.906;2024-03-08T02:57:36;97986.00;;;4.60
20058;BMP180;10189;49.546;7.906;2024-03-08T03:00:03;97969.00;;;4.60
20058;BMP180;10189;49.546;7.906;2024-03-08T03:02:29;97978.00;;;4.60
20058;BMP180;10189;49.546;7.906;2024-03-08T03:04:55;97956.00;;;4.60
20058;BMP180;10189;49.546;7.906;2024-03-08T03:07:21;97957.00;;;4.60
20058;BMP180;10189;49.546;7.906;2024-03-08T03:09:47;97956.00;;;4.50
20058;BMP180;10189;49.546;7.906;2024-03-08T03:12:13;97955.00;;;4.50
20058;BMP180;10189;49.546;7.906;2024-03-08T03:14:39;97951.00;;;4.50
20058;BMP180;10189;49.546;7.906;2024-03-08T03:17:05;97956.00;;;4.30
20058;BMP180;10189;49.546;7.906;2024-03-08T03:19:31;97959.00;;;4.20
20058;BMP180;10189;49.546;7.906;2024-03-08T03:21:57;97951.00;;;4.20
20058;BMP180;10189;49.546;7.906;2024-03-08T03:24:23;97963.00;;;4.00
20058;BMP180;10189;49.546;7.906;2024-03-08T03:26:49;97965.00;;;4.00
20058;BMP180;10189;49.546;7.906;2024-03-08T03:29:16;97955.00;;;4.10
20058;BMP180;10189;49.546;7.906;2024-03-08T03:31:43;97955.00;;;4.00
20058;BMP180;10189;49.546;7.906;2024-03-08T03:34:13;97954.00;;;4.00
20058;BMP180;10189;49.546;7.906;2024-03-08T03:36:38;97948.00;;;3.90
20058;BMP180;10189;49.546;7.906;2024-03-08T03:39:10;97947.00;;;4.10
20058;BMP180;10189;49.546;7.906;2024-03-08T03:41:39;97951.00;;;3.90
20058;BMP180;10189;49.546;7.906;2024-03-08T03:44:05;97949.00;;;3.80
20058;BMP180;10189;49.546;7.906;2024-03-08T03:46:33;97955.00;;;3.80
20058;BMP180;10189;49.546;7.906;2024-03-08T03:48:59;97950.00;;;3.90
20058;BMP180;10189;49.546;7.906;2024-03-08T03:51:25;97946.00;;;3.80
20058;BMP180;10189;49.546;7.906;2024-03-08T03:53:51;97932.00;;;3.90
20058;BMP180;10189;49.546;7.906;2024-03-08T03:56:18;97939.00;;;4.00
20058;BMP180;10189;49.546;7.906;2024-03-08T03:58:44;97934.00;;;3.80
20058;BMP180;10189;49.546;7.906;2024-03-08T04:01:10;97936.00;;;3.80
20058;BMP180;10189;49.546;7.906;2024-03-08T04:03:36;97942.00;;;3.70
20058;BMP180;10189;49.546;7.906;2024-03-08T04:06:04;97929.00;;;3.60
20058;BMP180;10189;49.546;7.906;2024-03-08T04:08:30;97925.00;;;3.50
20058;BMP180;10189;49.546;7.906;2024-03-08T04:10:56;97931.00;;;3.60
20058;BMP180;10189;49.546;7.906;2024-03-08T04:13:24;97921.00;;;3.50
20058;BMP180;10189;49.546;7.906;2024-03-08T04:15:49;97926.00;;;3.50
20058;BMP180;10189;49.546;7.906;2024-03-08T04:18:15;97928.00;;;3.40
20058;BMP180;10189;49.546;7.906;2024-03-08T04:20:41;97929.00;;;3.30
20058;BMP180;10189;49.546;7.906;2024-03-08T04:23:07;97926.00;;;3.40
20058;BMP180;10189;49.546;7.906;2024-03-08T04:25:33;97926.00;;;3.50
20058;BMP180;10189;49.546;7.906;2024-03-08T04:27:59;97921.00;;;3.40
20058;BMP180;10189;49.546;7.906;2024-03-08T04:30:24;97921.00;;;3.40
20058;BMP180;10189;49.546;7.906;2024-03-08T04:32:50;97928.00;;;3.30
20058;BMP180;10189;49.546;7.906;2024-03-08T04:35:17;97916.00;;;3.40
20058;BMP180;10189;49.546;7.906;2024-03-08T04:37:42;97921.00;;;3.40
20058;BMP180;10189;49.546;7.906;2024-03-08T04:40:09;97916.00;;;3.40
20058;BMP180;10189;49.546;7.906;2024-03-08T04:42:39;97915.00;;;3.40
20058;BMP180;10189;49.546;7.906;2024-03-08T04:45:06;97912.00;;;3.40
20058;BMP180;10189;49.546;7.906;2024-03-08T04:47:33;97919.00;;;3.40
20058;BMP180;10189;49.546;7.906;2024-03-08T04:49:59;97920.00;;;3.40
20058;BMP180;10189;49.546;7.906;2024-03-08T04:52:25;97916.00;;;3.40
20058;BMP180;10189;49.546;7.906;2024-03-08T04:54:51;97916.00;;;3.40
20058;BMP180;10189;49.546;7.906;2024-03-08T04:57:17;97916.00;;;3.40
20058;BMP180;10189;49.546;7.906;2024-03-08T04:59:43;97918.00;;;3.40
20058;BMP180;10189;49.546;7.906;2024-03-08T05:02:09;97911.00;;;3.30
20058;BMP180;10189;49.546;7.906;2024-03-08T05:04:35;97901.00;;;3.30
20058;BMP180;10189;49.546;7.906;2024-03-08T05:07:02;97909.00;;;3.30
20058;BMP180;10189;49.546;7.906;2024-03-08T05:09:28;97898.00;;;3.30
20058;BMP180;10189;49.546;7.906;2024-03-08T05:11:54;97904.00;;;3.20
20058;BMP180;10189;49.546;7.906;2024-03-08T05:14:20;97904.00;;;3.30
20058;BMP180;10189;49.546;7.906;2024-03-08T05:16:47;97901.00;;;3.30
20058;BMP180;10189;49.546;7.906;2024-03-08T05:19:17;97901.00;;;3.30
20058;BMP180;10189;49.546;7.906;2024-03-08T05:21:48;97893.00;;;3.30
20058;BMP180;10189;49.546;7.906;2024-03-08T05:24:15;97890.00;;;3.50
20058;BMP180;10189;49.546;7.906;2024-03-08T05:26:41;97896.00;;;3.50
20058;BMP180;10189;49.546;7.906;2024-03-08T05:29:08;97889.00;;;3.40
20058;BMP180;10189;49.546;7.906;2024-03-08T05:31:52;97899.00;;;3.30
20058;BMP180;10189;49.546;7.906;2024-03-08T05:34:18;97888.00;;;3.20
20058;BMP180;10189;49.546;7.906;2024-03-08T05:36:49;97890.00;;;3.30
20058;BMP180;10189;49.546;7.906;2024-03-08T05:39:17;97883.00;;;3.30
20058;BMP180;10189;49.546;7.906;2024-03-08T05:41:44;97875.00;;;3.20
20058;BMP180;10189;49.546;7.906;2024-03-08T05:44:12;97882.00;;;3.20
20058;BMP180;10189;49.546;7.906;2024-03-08T05:46:39;97883.00;;;3.30
20058;BMP180;10189;49.546;7.906;2024-03-08T05:49:08;97888.00;;;3.20
20058;BMP180;10189;49.546;7.906;2024-03-08T05:51:37;97887.00;;;3.00
20058;BMP180;10189;49.546;7.906;2024-03-08T05:54:07;97895.00;;;3.00
20058;BMP180;10189;49.546;7.906;2024-03-08T05:56:36;97884.00;;;3.00
20058;BMP180;10189;49.546;7.906;2024-03-08T05:59:02;97890.00;;;3.10
20058;BMP180;10189;49.546;7.906;2024-03-08T06:01:29;97880.00;;;3.10
20058;BMP180;10189;49.546;7.906;2024-03-08T06:03:57;97878.00;;;3.10
20058;BMP180;10189;49.546;7.906;2024-03-08T06:06:24;97884.00;;;3.00
20058;BMP180;10189;49.546;7.906;2024-03-08T06:08:50;97894.00;;;2.90
20058;BMP180;10189;49.546;7.906;2024-03-08T06:11:18;97886.00;;;3.00
20058;BMP180;10189;49.546;7.906;2024-03-08T06:13:48;97894.00;;;3.10
20058;BMP180;10189;49.546;7.906;2024-03-08T06:16:14;97888.00;;;3.00
20058;BMP180;10189;49.546;7.906;2024-03-08T06:18:40;97880.00;;;3.10
20058;BMP180;10189;49.546;7.906;2024-03-08T06:21:07;97886.00;;;3.10
20058;BMP180;10189;49.546;7.906;2024-03-08T06:23:38;97888.00;;;3.00
20058;BMP180;10189;49.546;7.906;2024-03-08T06:26:07;97888.00;;;3.10
20058;BMP180;10189;49.546;7.906;2024-03-08T06:28:34;97873.00;;;3.10
20058;BMP180;10189;49.546;7.906;2024-03-08T06:31:01;97887.00;;;3.20
20058;BMP180;10189;49.546;7.906;2024-03-08T06:33:28;97880.00;;;3.20
20058;BMP180;10189;49.546;7.906;2024-03-08T06:35:55;97884.00;;;3.20
20058;BMP180;10189;49.546;7.906;2024-03-08T06:38:27;97877.00;;;3.20
20058;BMP180;10189;49.546;7.906;2024-03-08T06:40:53;97879.00;;;3.30
20058;BMP180;10189;49.546;7.906;2024-03-08T06:43:20;97882.00;;;3.30
20058;BMP180;10189;49.546;7.906;2024-03-08T06:45:48;97866.00;;;3.50
20058;BMP180;10189;49.546;7.906;2024-03-08T06:48:17;97872.00;;;3.50
20058;BMP180;10189;49.546;7.906;2024-03-08T06:50:45;97865.00;;;3.40
20058;BMP180;10189;49.546;7.906;2024-03-08T06:53:14;97871.00;;;3.60
20058;BMP180;10189;49.546;7.906;2024-03-08T06:55:40;97878.00;;;3.60
20058;BMP180;10189;49.546;7.906;2024-03-08T06:58:06;97867.00;;;3.70
20058;BMP180;10189;49.546;7.906;2024-03-08T07:00:37;97871.00;;;3.70
20058;BMP180;10189;49.546;7.906;2024-03-08T07:03:03;97869.00;;;3.70
20058;BMP180;10189;49.546;7.906;2024-03-08T07:05:32;97874.00;;;3.60
20058;BMP180;10189;49.546;7.906;2024-03-08T07:07:58;97867.00;;;3.70
20058;BMP180;10189;49.546;7.906;2024-03-08T07:10:24;97869.00;;;3.70
20058;BMP180;10189;49.546;7.906;2024-03-08T07:12:53;97877.00;;;3.70
20058;BMP180;10189;49.546;7.906;2024-03-08T07:15:20;97867.00;;;3.80
20058;BMP180;10189;49.546;7.906;2024-03-08T07:17:46;97869.00;;;4.00
20058;BMP180;10189;49.546;7.906;2024-03-08T07:20:14;97862.00;;;4.20
20058;BMP180;10189;49.546;7.906;2024-03-08T07:22:41;97853.00;;;4.30
20058;BMP180;10189;49.546;7.906;2024-03-08T07:25:08;97841.00;;;4.30
20058;BMP180;10189;49.546;7.906;2024-03-08T07:27:51;97840.00;;;4.40
20058;BMP180;10189;49.546;7.906;2024-03-08T07:30:23;97837.00;;;4.50
20058;BMP180;10189;49.546;7.906;2024-03-08T07:33:07;97840.00;;;4.60
20058;BMP180;10189;49.546;7.906;2024-03-08T07:35:34;97833.00;;;4.70
20058;BMP180;10189;49.546;7.906;2024-03-08T07:38:07;97831.00;;;4.80
20058;BMP180;10189;49.546;7.906;2024-03-08T07:40:41;97825.00;;;4.90
20058;BMP180;10189;49.546;7.906;2024-03-08T07:43:11;97821.00;;;5.00
20058;BMP180;10189;49.546;7.906;2024-03-08T07:45:38;97828.00;;;4.90
20058;BMP180;10189;49.546;7.906;2024-03-08T07:48:05;97819.00;;;4.90
20058;BMP180;10189;49.546;7.906;2024-03-08T07:50:41;97817.00;;;5.00
20058;BMP180;10189;49.546;7.906;2024-03-08T07:53:10;97826.00;;;5.20
20058;BMP180;10189;49.546;7.906;2024-03-08T07:55:36;97811.00;;;5.20
20058;BMP180;10189;49.546;7.906;2024-03-08T07:58:03;97816.00;;;5.40
20058;BMP180;10189;49.546;7.906;2024-03-08T08:00:30;97811.00;;;5.10
20058;BMP180;10189;49.546;7.906;2024-03-08T08:02:57;97810.00;;;5.20
20058;BMP180;10189;49.546;7.906;2024-03-08T08:05:23;97820.00;;;5.20
20058;BMP180;10189;49.546;7.906;2024-03-08T08:07:49;97805.00;;;5.30
20058;BMP180;10189;49.546;7.906;2024-03-08T08:10:16;97799.00;;;5.40
20058;BMP180;10189;49.546;7.906;2024-03-08T08:12:48;97804.00;;;5.50
20058;BMP180;10189;49.546;7.906;2024-03-08T08:15:14;97796.00;;;5.80
20058;BMP180;10189;49.546;7.906;2024-03-08T08:17:44;97789.00;;;6.10
20058;BMP180;10189;49.546;7.906;2024-03-08T08:20:12;97775.00;;;6.20
20058;BMP180;10189;49.546;7.906;2024-03-08T08:22:42;97784.00;;;6.40
20058;BMP180;10189;49.546;7.906;2024-03-08T08:25:11;97782.00;;;6.10
20058;BMP180;10189;49.546;7.906;2024-03-08T08:27:41;97782.00;;;6.00
20058;BMP180;10189;49.546;7.906;2024-03-08T08:30:11;97768.00;;;6.40
20058;BMP180;10189;49.546;7.906;2024-03-08T08:32:37;97770.00;;;6.70
20058;BMP180;10189;49.546;7.906;2024-03-08T08:35:06;97757.00;;;6.60
20058;BMP180;10189;49.546;7.906;2024-03-08T08:37:32;97760.00;;;6.50
20058;BMP180;10189;49.546;7.906;2024-03-08T08:39:58;97752.00;;;6.30
20058;BMP180;10189;49.546;7.906;2024-03-08T08:42:24;97750.00;;;6.40
20058;BMP180;10189;49.546;7.906;2024-03-08T08:44:51;97761.00;;;6.70
20058;BMP180;10189;49.546;7.906;2024-03-08T08:47:17;97758.00;;;6.80
20058;BMP180;10189;49.546;7.906;2024-03-08T08:49:47;97734.00;;;7.00
20058;BMP180;10189;49.546;7.906;2024-03-08T08:52:13;97739.00;;;7.30
20058;BMP180;10189;49.546;7.906;2024-03-08T08:54:39;97731.00;;;7.50
20058;BMP180;10189;49.546;7.906;2024-03-08T08:57:05;97726.00;;;7.50
20058;BMP180;10189;49.546;7.906;2024-03-08T08:59:34;97731.00;;;7.50
20058;BMP180;10189;49.546;7.906;2024-03-08T09:02:08;97725.00;;;7.10
20058;BMP180;10189;49.546;7.906;2024-03-08T09:04:37;97729.00;;;7.10
20058;BMP180;10189;49.546;7.906;2024-03-08T09:07:03;97721.00;;;7.30
20058;BMP180;10189;49.546;7.906;2024-03-08T09:09:32;97722.00;;;7.50
20058;BMP180;10189;49.546;7.906;2024-03-08T09:11:58;97711.00;;;7.80
20058;BMP180;10189;49.546;7.906;2024-03-08T09:14:24;97728.00;;;7.60
20058;BMP180;10189;49.546;7.906;2024-03-08T09:16:52;97720.00;;;7.20
20058;BMP180;10189;49.546;7.906;2024-03-08T09:19:18;97708.00;;;7.30
20058;BMP180;10189;49.546;7.906;2024-03-08T09:21:45;97692.00;;;7.70
20058;BMP180;10189;49.546;7.906;2024-03-08T09:24:11;97696.00;;;7.70
20058;BMP180;10189;49.546;7.906;2024-03-08T09:26:38;97697.00;;;7.90
20058;BMP180;10189;49.546;7.906;2024-03-08T09:29:06;97692.00;;;8.10
20058;BMP180;10189;49.546;7.906;2024-03-08T09:31:32;97693.00;;;8.00
20058;BMP180;10189;49.546;7.906;2024-03-08T09:33:59;97686.00;;;8.30
20058;BMP180;10189;49.546;7.906;2024-03-08T09:36:24;97683.00;;;8.40
20058;BMP180;10189;49.546;7.906;2024-03-08T09:38:51;97680.00;;;8.60
20058;BMP180;10189;49.546;7.906;2024-03-08T09:41:16;97691.00;;;8.30
20058;BMP180;10189;49.546;7.906;2024-03-08T09:43:45;97682.00;;;8.30
20058;BMP180;10189;49.546;7.906;2024-03-08T09:46:12;97672.00;;;8.10
20058;BMP180;10189;49.546;7.906;2024-03-08T09:48:40;97680.00;;;8.00
20058;BMP180;10189;49.546;7.906;2024-03-08T09:51:09;97673.00;;;8.20
20058;BMP180;10189;49.546;7.906;2024-03-08T09:53:39;97682.00;;;8.20
20058;BMP180;10189;49.546;7.906;2024-03-08T09:56:06;97697.00;;;7.90
20058;BMP180;10189;49.546;7.906;2024-03-08T09:58:32;97687.00;;;7.80
20058;BMP180;10189;49.546;7.906;2024-03-08T10:01:00;97676.00;;;8.30
20058;BMP180;10189;49.546;7.906;2024-03-08T10:03:33;97673.00;;;8.00
20058;BMP180;10189;49.546;7.906;2024-03-08T10:05:59;97661.00;;;8.20
20058;BMP180;10189;49.546;7.906;2024-03-08T10:08:29;97660.00;;;8.10
20058;BMP180;10189;49.546;7.906;2024-03-08T10:10:56;97657.00;;;8.50
20058;BMP180;10189;49.546;7.906;2024-03-08T10:13:25;97657.00;;;9.00
20058;BMP180;10189;49.546;7.906;2024-03-08T10:15:55;97652.00;;;8.90
20058;BMP180;10189;49.546;7.906;2024-03-08T10:18:21;97654.00;;;9.20
20058;BMP180;10189;49.546;7.906;2024-03-08T10:21:03;97661.00;;;8.90
20058;BMP180;10189;49.546;7.906;2024-03-08T10:23:31;97649.00;;;8.70
20058;BMP180;10189;49.546;7.906;2024-03-08T10:25:57;97653.00;;;9.00
20058;BMP180;10189;49.546;7.906;2024-03-08T10:28:24;97652.00;;;8.80
20058;BMP180;10189;49.546;7.906;2024-03-08T10:30:57;97658.00;;;8.10
20058;BMP180;10189;49.546;7.906;2024-03-08T10:33:23;97645.00;;;8.50
20058;BMP180;10189;49.546;7.906;2024-03-08T10:35:51;97644.00;;;8.60
20058;BMP180;10189;49.546;7.906;2024-03-08T10:38:22;97640.00;;;9.10
20058;BMP180;10189;49.546;7.906;2024-03-08T10:40:49;97642.00;;;8.90
20058;BMP180;10189;49.546;7.906;2024-03-08T10:43:25;97641.00;;;8.50
20058;BMP180;10189;49.546;7.906;2024-03-08T10:46:21;97654.00;;;8.10
20058;BMP180;10189;49.546;7.906;2024-03-08T10:48:52;97650.00;;;7.70
20058;BMP180;10189;49.546;7.906;2024-03-08T10:51:21;97652.00;;;7.40
20058;BMP180;10189;49.546;7.906;2024-03-08T10:53:48;97662.00;;;7.10
20058;BMP180;10189;49.546;7.906;2024-03-08T10:56:17;97662.00;;;7.20
20058;BMP180;10189;49.546;7.906;2024-03-08T10:58:43;97656.00;;;7.40
20058;BMP180;10189;49.546;7.906;2024-03-08T11:01:10;97656.00;;;7.40
20058;BMP180;10189;49.546;7.906;2024-03-08T11:03:48;97645.00;;;7.60
20058;BMP180;10189;49.546;7.906;2024-03-08T11:06:23;97641.00;;;7.80
20058;BMP180;10189;49.546;7.906;2024-03-08T11:08:55;97621.00;;;8.20
20058;BMP180;10189;49.546;7.906;2024-03-08T11:11:33;97619.00;;;7.90
20058;BMP180;10189;49.546;7.906;2024-03-08T11:14:02;97623.00;;;8.10
20058;BMP180;10189;49.546;7.906;2024-03-08T11:19:01;97614.00;;;8.10
20058;BMP180;10189;49.546;7.906;2024-03-08T11:21:32;97621.00;;;7.90
20058;BMP180;10189;49.546;7.906;2024-03-08T11:24:08;97615.00;;;8.00
20058;BMP180;10189;49.546;7.906;2024-03-08T11:26:37;97600.00;;;8.40
20058;BMP180;10189;49.546;7.906;2024-03-08T11:32:15;97609.00;;;8.40
20058;BMP180;10189;49.546;7.906;2024-03-08T11:34:50;97599.00;;;8.60
20058;BMP180;10189;49.546;7.906;2024-03-08T11:37:20;97607.00;;;8.40
20058;BMP180;10189;49.546;7.906;2024-03-08T11:39:54;97600.00;;;8.60
20058;BMP180;10189;49.546;7.906;2024-03-08T11:42:27;97587.00;;;8.80
20058;BMP180;10189;49.546;7.906;2024-03-08T11:44:53;97600.00;;;8.60
20058;BMP180;10189;49.546;7.906;2024-03-08T11:47:21;97591.00;;;8.40
20058;BMP180;10189;49.546;7.906;2024-03-08T11:49:47;97596.00;;;8.50
20058;BMP180;10189;49.546;7.906;2024-03-08T11:52:18;97585.00;;;8.70
20058;BMP180;10189;49.546;7.906;2024-03-08T11:54:54;97579.00;;;8.60
20058;BMP180;10189;49.546;7.906;2024-03-08T11:57:23;97576.00;;;8.50
20058;BMP180;10189;49.546;7.906;2024-03-08T11:59:54;97572.00;;;8.40
20058;BMP180;10189;49.546;7.906;2024-03-08T12:02:24;97572.00;;;8.70
20058;BMP180;10189;49.546;7.906;2024-03-08T12:04:58;97564.00;;;8.70
20058;BMP180;10189;49.546;7.906;2024-03-08T12:07:26;97573.00;;;9.20
20058;BMP180;10189;49.546;7.906;2024-03-08T12:10:22;97561.00;;;9.50
20058;BMP180;10189;49.546;7.906;2024-03-08T12:12:51;97569.00;;;9.50
20058;BMP180;10189;49.546;7.906;2024-03-08T12:15:19;97570.00;;;8.90
20058;BMP180;10189;49.546;7.906;2024-03-08T12:17:51;97564.00;;;8.60
20058;BMP180;10189;49.546;7.906;2024-03-08T12:20:25;97556.00;;;8.60
20058;BMP180;10189;49.546;7.906;2024-03-08T12:22:53;97553.00;;;8.60
20058;BMP180;10189;49.546;7.906;2024-03-08T12:25:22;97578.00;;;8.70
20058;BMP180;10189;49.546;7.906;2024-03-08T12:27:49;97552.00;;;8.60
20058;BMP180;10189;49.546;7.906;2024-03-08T12:30:26;97543.00;;;8.60
20058;BMP180;10189;49.546;7.906;2024-03-08T12:32:57;97535.00;;;8.70
20058;BMP180;10189;49.546;7.906;2024-03-08T12:35:27;97537.00;;;9.00
20058;BMP180;10189;49.546;7.906;2024-03-08T12:37:56;97538.00;;;8.60
20058;BMP180;10189;49.546;7.906;2024-03-08T12:40:32;97539.00;;;8.60
20058;BMP180;10189;49.546;7.906;2024-03-08T12:42:59;97523.00;;;8.70
20058;BMP180;10189;49.546;7.906;2024-03-08T12:45:26;97517.00;;;8.90
20058;BMP180;10189;49.546;7.906;2024-03-08T12:47:54;97510.00;;;9.10
20058;BMP180;10189;49.546;7.906;2024-03-08T12:50:22;97503.00;;;9.10
20058;BMP180;10189;49.546;7.906;2024-03-08T12:52:48;97495.00;;;8.80
20058;BMP180;10189;49.546;7.906;2024-03-08T12:55:16;97499.00;;;8.80
20058;BMP180;10189;49.546;7.906;2024-03-08T12:57:45;97492.00;;;9.00
20058;BMP180;10189;49.546;7.906;2024-03-08T13:00:14;97476.00;;;9.20
20058;BMP180;10189;49.546;7.906;2024-03-08T13:02:47;97479.00;;;9.30
20058;BMP180;10189;49.546;7.906;2024-03-08T13:05:13;97463.00;;;9.40
20058;BMP180;10189;49.546;7.906;2024-03-08T13:07:43;97457.00;;;9.40
20058;BMP180;10189;49.546;7.906;2024-03-08T13:10:16;97465.00;;;9.40
20058;BMP180;10189;49.546;7.906;2024-03-08T13:12:45;97453.00;;;9.30
20058;BMP180;10189;49.546;7.906;2024-03-08T13:15:12;97448.00;;;9.40
20058;BMP180;10189;49.546;7.906;2024-03-08T13:17:48;97438.00;;;9.30
20058;BMP180;10189;49.546;7.906;2024-03-08T13:20:14;97456.00;;;9.40
20058;BMP180;10189;49.546;7.906;2024-03-08T13:22:46;97438.00;;;9.60
20058;BMP180;10189;49.546;7.906;2024-03-08T13:25:15;97430.00;;;9.80
20058;BMP180;10189;49.546;7.906;2024-03-08T13:27:41;97438.00;;;9.90
20058;BMP180;10189;49.546;7.906;2024-03-08T13:30:12;97441.00;;;9.70
20058;BMP180;10189;49.546;7.906;2024-03-08T13:32:40;97436.00;;;9.70
20058;BMP180;10189;49.546;7.906;2024-03-08T13:35:12;97429.00;;;9.90
20058;BMP180;10189;49.546;7.906;2024-03-08T13:37:42;97434.00;;;9.70
20058;BMP180;10189;49.546;7.906;2024-03-08T13:40:10;97424.00;;;9.60
20058;BMP180;10189;49.546;7.906;2024-03-08T13:42:47;97433.00;;;9.90
20058;BMP180;10189;49.546;7.906;2024-03-08T13:45:15;97425.00;;;9.80
20058;BMP180;10189;49.546;7.906;2024-03-08T13:47:50;97415.00;;;10.00
20058;BMP180;10189;49.546;7.906;2024-03-08T13:50:19;97413.00;;;9.80
20058;BMP180;10189;49.546;7.906;2024-03-08T13:52:50;97404.00;;;9.70
20058;BMP180;10189;49.546;7.906;2024-03-08T13:55:21;97401.00;;;9.80
20058;BMP180;10189;49.546;7.906;2024-03-08T13:57:57;97395.00;;;9.90
20058;BMP180;10189;49.546;7.906;2024-03-08T14:00:26;97384.00;;;10.00
20058;BMP180;10189;49.546;7.906;2024-03-08T14:02:59;97402.00;;;9.80
20058;BMP180;10189;49.546;7.906;2024-03-08T14:05:25;97389.00;;;10.00
20058;BMP180;10189;49.546;7.906;2024-03-08T14:07:51;97393.00;;;10.10
20058;BMP180;10189;49.546;7.906;2024-03-08T14:10:19;97379.00;;;10.00
20058;BMP180;10189;49.546;7.906;2024-03-08T14:12:48;97367.00;;;10.00
20058;BMP180;10189;49.546;7.906;2024-03-08T14:15:16;97368.00;;;10.00
20058;BMP180;10189;49.546;7.906;2024-03-08T14:17:42;97362.00;;;10.00
20058;BMP180;10189;49.546;7.906;2024-03-08T14:20:09;97358.00;;;10.00
20058;BMP180;10189;49.546;7.906;2024-03-08T14:22:35;97367.00;;;10.10
20058;BMP180;10189;49.546;7.906;2024-03-08T14:25:01;97353.00;;;10.20
20058;BMP180;10189;49.546;7.906;2024-03-08T14:27:28;97359.00;;;10.10
20058;BMP180;10189;49.546;7.906;2024-03-08T14:29:54;97354.00;;;10.20
20058;BMP180;10189;49.546;7.906;2024-03-08T14:32:20;97359.00;;;10.20